createdAt,value
2019-03-05T00:01:40.414Z,7.20
2019-03-05T00:04:10.323Z,7.20
2019-03-05T00:06:39.561Z,7.20
2019-03-05T00:09:15.995Z,7.20
2019-03-05T00:11:44.887Z,7.10
2019-03-05T00:16:48.191Z,7.20
2019-03-05T00:19:17.202Z,7.10
2019-03-05T00:21:46.392Z,7.10
2019-03-05T00:24:51.576Z,7.10
2019-03-05T00:27:20.422Z,7.10
2019-03-05T00:30:19.891Z,7.10
2019-03-05T00:32:52.376Z,7.10
2019-03-05T00:35:45.078Z,7.10
2019-03-05T00:38:30.358Z,7.00
2019-03-05T00:41:33.969Z,7.00
2019-03-05T00:44:35.368Z,7.00
2019-03-05T00:47:27.369Z,7.00
2019-03-05T00:50:15.548Z,7.00
2019-03-05T00:53:08.410Z,7.00
2019-03-05T00:55:59.749Z,7.10
2019-03-05T00:58:55.948Z,7.10
2019-03-05T01:01:38.194Z,7.10
2019-03-05T01:04:45.102Z,7.10
2019-03-05T01:07:15.216Z,7.00
2019-03-05T01:09:45.136Z,7.00
2019-03-05T01:12:15.616Z,6.90
2019-03-05T01:14:44.919Z,6.90
2019-03-05T01:17:14.450Z,6.90
2019-03-05T01:19:44.040Z,6.80
2019-03-05T01:22:13.271Z,6.80
2019-03-05T01:24:44.060Z,6.80
2019-03-05T01:27:13.735Z,6.70
2019-03-05T01:29:42.601Z,6.70
2019-03-05T01:32:18.905Z,6.70
2019-03-05T01:37:55.229Z,6.60
2019-03-05T01:40:47.123Z,6.60
2019-03-05T01:43:16.015Z,6.50
2019-03-05T01:45:45.859Z,6.60
2019-03-05T01:48:14.748Z,6.60
2019-03-05T01:50:43.627Z,6.60
2019-03-05T01:53:12.777Z,6.60
2019-03-05T01:55:44.937Z,6.60
2019-03-05T01:58:13.841Z,6.60
2019-03-05T02:00:43.039Z,6.60
2019-03-05T02:03:11.946Z,6.60
2019-03-05T02:05:40.868Z,6.60
2019-03-05T02:08:09.847Z,6.60
2019-03-05T02:10:38.705Z,6.60
2019-03-05T02:13:09.456Z,6.60
2019-03-05T02:15:38.258Z,6.60
2019-03-05T02:18:08.831Z,6.60
2019-03-05T02:20:38.647Z,6.60
2019-03-05T02:23:28.711Z,6.60
2019-03-05T02:26:02.204Z,6.60
2019-03-05T02:29:11.902Z,6.60
2019-03-05T02:32:20.890Z,6.60
2019-03-05T02:35:07.303Z,6.60
2019-03-05T02:38:21.475Z,6.60
2019-03-05T02:41:42.912Z,6.70
2019-03-05T02:44:36.977Z,6.70
2019-03-05T02:47:50.236Z,6.50
2019-03-05T02:50:56.238Z,6.30
2019-03-05T02:53:59.911Z,6.10
2019-03-05T02:56:42.678Z,6.00
2019-03-05T02:59:10.196Z,5.90
2019-03-05T03:02:00.958Z,5.80
2019-03-05T03:04:33.302Z,5.90
2019-03-05T03:07:06.646Z,5.90
2019-03-05T03:10:06.469Z,6.00
2019-03-05T03:12:35.448Z,6.00
2019-03-05T03:15:05.314Z,6.00
2019-03-05T03:17:34.215Z,6.10
2019-03-05T03:20:03.423Z,6.00
2019-03-05T03:22:32.597Z,6.00
2019-03-05T03:25:01.487Z,6.00
2019-03-05T03:27:30.295Z,6.00
2019-03-05T03:29:59.131Z,6.00
2019-03-05T03:32:28.288Z,5.90
2019-03-05T03:34:57.578Z,6.00
2019-03-05T03:37:26.594Z,6.00
2019-03-05T03:39:55.528Z,5.90
2019-03-05T03:42:24.886Z,5.90
2019-03-05T03:44:54.055Z,5.90
2019-03-05T03:47:22.932Z,6.00
2019-03-05T03:49:52.462Z,6.00
2019-03-05T03:52:21.948Z,6.00
2019-03-05T03:54:51.779Z,6.00
2019-03-05T03:57:20.941Z,6.10
2019-03-05T03:59:50.125Z,6.00
2019-03-05T04:02:20.000Z,6.10
2019-03-05T04:04:49.266Z,6.10
2019-03-05T04:07:18.195Z,6.00
2019-03-05T04:09:47.516Z,6.10
2019-03-05T04:12:16.461Z,6.10
2019-03-05T04:14:45.457Z,6.10
2019-03-05T04:17:15.477Z,6.00
2019-03-05T04:19:44.562Z,5.90
2019-03-05T04:22:13.416Z,5.90
2019-03-05T04:24:42.357Z,5.90
2019-03-05T04:27:11.496Z,5.90
2019-03-05T04:29:42.518Z,5.90
2019-03-05T04:32:12.274Z,5.90
2019-03-05T04:34:41.318Z,5.90
2019-03-05T04:37:10.211Z,5.90
2019-03-05T04:39:39.422Z,5.90
2019-03-05T04:42:08.571Z,5.90
2019-03-05T04:44:51.462Z,5.80
2019-03-05T04:47:20.427Z,5.80
2019-03-05T04:50:00.993Z,5.80
2019-03-05T04:52:33.128Z,5.70
2019-03-05T04:55:02.093Z,5.70
2019-03-05T04:57:30.964Z,5.70
2019-03-05T05:00:00.412Z,5.70
2019-03-05T05:02:29.708Z,5.70
2019-03-05T05:05:02.546Z,5.70
2019-03-05T05:07:31.728Z,5.70
2019-03-05T05:10:02.320Z,5.70
2019-03-05T05:12:31.191Z,5.70
2019-03-05T05:15:00.061Z,5.60
2019-03-05T05:17:30.266Z,5.60
2019-03-05T05:20:00.356Z,5.60
2019-03-05T05:22:32.018Z,5.60
2019-03-05T05:25:01.441Z,5.60
2019-03-05T05:27:30.320Z,5.60
2019-03-05T05:29:59.425Z,5.70
2019-03-05T05:32:28.578Z,5.60
2019-03-05T05:34:58.299Z,5.60
2019-03-05T05:37:27.107Z,5.60
2019-03-05T05:40:26.967Z,5.50
2019-03-05T05:42:57.023Z,5.50
2019-03-05T05:45:28.409Z,5.50
2019-03-05T05:47:58.102Z,5.50
2019-03-05T05:50:27.271Z,5.40
2019-03-05T05:52:56.173Z,5.40
2019-03-05T05:55:25.075Z,5.40
2019-03-05T05:57:54.874Z,5.40
2019-03-05T06:00:23.948Z,5.40
2019-03-05T06:02:54.422Z,5.40
2019-03-05T06:05:23.688Z,5.40
2019-03-05T06:07:52.574Z,5.40
2019-03-05T06:10:24.961Z,5.40
2019-03-05T06:12:54.975Z,5.40
2019-03-05T06:15:24.185Z,5.40
2019-03-05T06:17:53.191Z,5.40
2019-03-05T06:20:23.902Z,5.40
2019-03-05T06:22:55.699Z,5.40
2019-03-05T06:25:25.028Z,5.40
2019-03-05T06:27:53.942Z,5.40
2019-03-05T06:30:22.894Z,5.40
2019-03-05T06:32:54.001Z,5.40
2019-03-05T06:35:23.667Z,5.40
2019-03-05T06:37:55.895Z,5.40
2019-03-05T06:40:24.817Z,5.40
2019-03-05T06:42:54.629Z,5.30
2019-03-05T06:45:26.402Z,5.30
2019-03-05T06:47:55.523Z,5.40
2019-03-05T06:50:25.702Z,5.40
2019-03-05T06:52:55.016Z,5.40
2019-03-05T06:55:24.144Z,5.40
2019-03-05T06:57:53.414Z,5.40
2019-03-05T07:00:38.710Z,5.50
2019-03-05T07:03:08.971Z,5.50
2019-03-05T07:06:16.811Z,5.50
2019-03-05T07:08:53.243Z,5.50
2019-03-05T07:11:53.303Z,5.50
2019-03-05T07:14:51.192Z,5.60
2019-03-05T07:17:27.343Z,5.70
2019-03-05T07:20:26.342Z,5.70
2019-03-05T07:23:36.712Z,5.80
2019-03-05T07:26:06.718Z,5.90
2019-03-05T07:28:38.727Z,6.00
2019-03-05T07:31:08.461Z,6.10
2019-03-05T07:33:37.602Z,6.20
2019-03-05T07:36:07.828Z,6.30
2019-03-05T07:38:36.720Z,6.30
2019-03-05T07:41:05.594Z,6.40
2019-03-05T07:43:36.751Z,6.40
2019-03-05T07:46:05.512Z,6.50
2019-03-05T07:48:34.454Z,6.60
2019-03-05T07:51:04.088Z,6.60
2019-03-05T07:53:33.878Z,6.60
2019-03-05T07:56:03.258Z,6.60
2019-03-05T07:58:35.730Z,6.70
2019-03-05T08:01:05.790Z,6.80
2019-03-05T08:03:36.995Z,6.90
2019-03-05T08:06:06.258Z,7.10
2019-03-05T08:09:11.515Z,7.20
2019-03-05T08:11:40.456Z,7.30
2019-03-05T08:14:33.029Z,7.40
2019-03-05T08:17:01.928Z,7.50
2019-03-05T08:19:31.960Z,7.50
2019-03-05T08:22:01.038Z,7.40
2019-03-05T08:24:29.965Z,7.30
2019-03-05T08:26:58.914Z,7.10
2019-03-05T08:29:31.122Z,7.10
2019-03-05T08:32:01.359Z,7.10
2019-03-05T08:34:30.337Z,7.00
2019-03-05T08:36:59.251Z,7.00
2019-03-05T08:39:28.823Z,6.90
2019-03-05T08:41:59.982Z,6.90
2019-03-05T08:44:29.158Z,6.90
2019-03-05T08:46:59.253Z,7.00
2019-03-05T08:49:28.964Z,7.10
2019-03-05T08:52:02.216Z,7.10
2019-03-05T08:54:31.421Z,7.20
2019-03-05T08:57:00.854Z,7.20
2019-03-05T08:59:32.479Z,7.10
2019-03-05T09:02:00.660Z,7.20
2019-03-05T09:04:29.558Z,7.20
2019-03-05T09:06:58.478Z,7.40
2019-03-05T09:09:28.336Z,7.50
2019-03-05T09:11:57.308Z,7.50
2019-03-05T09:14:26.269Z,7.50
2019-03-05T09:16:55.290Z,7.60
2019-03-05T09:21:58.655Z,7.80
2019-03-05T09:24:29.484Z,7.90
2019-03-05T09:26:58.763Z,8.00
2019-03-05T09:29:27.915Z,7.90
2019-03-05T09:31:56.850Z,7.90
2019-03-05T09:34:26.492Z,7.80
2019-03-05T09:36:55.364Z,8.00
2019-03-05T09:39:24.674Z,8.00
2019-03-05T09:41:54.263Z,8.00
2019-03-05T09:44:23.618Z,8.00
2019-03-05T09:46:52.937Z,8.10
2019-03-05T09:49:29.259Z,8.20
2019-03-05T09:51:58.868Z,8.40
2019-03-05T09:54:27.899Z,8.50
2019-03-05T09:56:56.943Z,8.60
2019-03-05T09:59:29.097Z,8.60
2019-03-05T10:01:59.787Z,8.60
2019-03-05T10:04:32.315Z,8.60
2019-03-05T10:07:01.449Z,8.70
2019-03-05T10:09:30.437Z,8.70
2019-03-05T10:11:59.401Z,8.70
2019-03-05T10:14:31.507Z,8.70
2019-03-05T10:17:03.797Z,8.60
2019-03-05T10:19:32.638Z,8.70
2019-03-05T10:22:01.814Z,8.70
2019-03-05T10:24:44.262Z,8.80
2019-03-05T10:27:20.427Z,8.80
2019-03-05T10:29:52.493Z,8.90
2019-03-05T10:32:21.637Z,8.90
2019-03-05T10:34:50.565Z,8.80
2019-03-05T10:37:19.972Z,8.70
2019-03-05T10:39:48.779Z,8.80
2019-03-05T10:42:18.541Z,8.60
2019-03-05T10:44:47.422Z,8.70
2019-03-05T10:47:16.900Z,8.70
2019-03-05T10:49:46.278Z,8.80
2019-03-05T10:52:15.405Z,9.00
2019-03-05T10:54:44.647Z,9.10
2019-03-05T10:57:15.010Z,9.20
2019-03-05T10:59:43.926Z,9.20
2019-03-05T11:02:12.851Z,9.10
2019-03-05T11:04:45.950Z,9.10
2019-03-05T11:07:13.593Z,8.90
2019-03-05T11:09:42.487Z,8.90
2019-03-05T11:12:11.749Z,9.00
2019-03-05T11:14:40.769Z,8.90
2019-03-05T11:17:10.959Z,8.90
2019-03-05T11:19:40.313Z,9.10
2019-03-05T11:22:09.354Z,9.30
2019-03-05T11:24:38.727Z,9.60
2019-03-05T11:27:08.202Z,9.50
2019-03-05T11:29:37.151Z,9.50
2019-03-05T11:32:06.134Z,9.40
2019-03-05T11:34:35.530Z,9.40
2019-03-05T11:37:04.456Z,9.50
2019-03-05T11:39:33.761Z,9.50
2019-03-05T11:42:02.867Z,9.60
2019-03-05T11:44:32.613Z,9.50
2019-03-05T11:47:01.787Z,9.50
2019-03-05T11:49:31.055Z,9.50
2019-03-05T11:51:59.996Z,9.50
2019-03-05T11:54:29.175Z,9.50
2019-03-05T11:56:58.425Z,9.30
2019-03-05T11:59:29.144Z,9.30
2019-03-05T12:01:58.363Z,9.20
2019-03-05T12:04:30.907Z,9.30
2019-03-05T12:07:00.160Z,9.30
2019-03-05T12:09:29.344Z,9.30
2019-03-05T12:11:58.337Z,9.30
2019-03-05T12:14:30.444Z,9.30
2019-03-05T12:16:59.597Z,9.40
2019-03-05T12:19:28.715Z,9.60
2019-03-05T12:21:57.927Z,9.80
2019-03-05T12:24:26.868Z,9.90
2019-03-05T12:26:55.860Z,10.10
2019-03-05T12:29:25.546Z,10.20
2019-03-05T12:31:54.555Z,10.20
2019-03-05T12:34:23.981Z,10.30
2019-03-05T12:36:56.662Z,10.30
2019-03-05T12:39:28.722Z,10.40
2019-03-05T12:42:12.087Z,10.60
2019-03-05T12:44:41.286Z,10.40
2019-03-05T12:47:10.318Z,10.30
2019-03-05T12:49:39.831Z,10.20
2019-03-05T12:52:09.348Z,10.40
2019-03-05T12:54:38.551Z,10.40
2019-03-05T12:57:08.550Z,10.20
2019-03-05T12:59:37.585Z,10.30
2019-03-05T13:02:06.637Z,10.20
2019-03-05T13:04:38.695Z,10.10
2019-03-05T13:07:07.873Z,10.20
2019-03-05T13:09:36.747Z,10.20
2019-03-05T13:12:06.014Z,10.10
2019-03-05T13:14:38.309Z,10.10
2019-03-05T13:17:06.308Z,10.10
2019-03-05T13:19:38.855Z,10.10
2019-03-05T13:22:08.223Z,10.00
2019-03-05T13:24:38.356Z,10.00
2019-03-05T13:27:07.515Z,10.10
2019-03-05T13:29:38.628Z,10.10
2019-03-05T13:32:07.799Z,10.20
2019-03-05T13:34:36.701Z,10.20
2019-03-05T13:37:09.234Z,10.10
2019-03-05T13:39:38.167Z,10.30
2019-03-05T13:42:07.974Z,10.50
2019-03-05T13:44:40.041Z,10.50
2019-03-05T13:47:09.886Z,10.50
2019-03-05T13:50:04.438Z,10.50
2019-03-05T13:53:26.996Z,10.50
2019-03-05T13:56:37.749Z,10.50
2019-03-05T13:59:47.900Z,10.60
2019-03-05T14:02:53.986Z,10.60
2019-03-05T14:06:19.098Z,10.50
2019-03-05T14:09:16.436Z,10.50
2019-03-05T14:11:46.874Z,10.50
2019-03-05T14:14:22.189Z,10.50
2019-03-05T14:16:59.607Z,10.50
2019-03-05T14:19:29.577Z,10.40
2019-03-05T14:21:58.655Z,10.40
2019-03-05T14:24:27.670Z,10.30
2019-03-05T14:26:57.082Z,10.20
2019-03-05T14:29:29.263Z,10.20
2019-03-05T14:31:58.420Z,10.30
2019-03-05T14:34:35.203Z,10.30
2019-03-05T14:37:04.633Z,10.30
2019-03-05T14:39:34.932Z,10.30
2019-03-05T14:42:06.748Z,10.40
2019-03-05T14:44:40.204Z,10.40
2019-03-05T14:47:07.507Z,10.40
2019-03-05T14:49:37.344Z,10.50
2019-03-05T14:52:07.505Z,10.30
2019-03-05T14:54:36.838Z,10.40
2019-03-05T14:57:06.022Z,10.30
2019-03-05T14:59:35.787Z,10.30
2019-03-05T15:02:05.129Z,10.30
2019-03-05T15:04:35.205Z,10.40
2019-03-05T15:07:04.810Z,10.30
2019-03-05T15:09:34.510Z,10.20
2019-03-05T15:12:04.396Z,10.40
2019-03-05T15:14:35.204Z,10.30
2019-03-05T15:17:04.447Z,10.30
2019-03-05T15:19:34.809Z,10.40
2019-03-05T15:22:03.923Z,10.40
2019-03-05T15:24:33.225Z,10.30
2019-03-05T15:27:03.726Z,10.40
2019-03-05T15:29:36.204Z,10.30
2019-03-05T15:32:11.296Z,10.40
2019-03-05T15:34:40.273Z,10.40
2019-03-05T15:37:09.697Z,10.40
2019-03-05T15:39:39.156Z,10.40
2019-03-05T15:42:10.297Z,10.30
2019-03-05T15:44:39.750Z,10.30
2019-03-05T15:47:09.259Z,10.40
2019-03-05T15:49:40.397Z,10.40
2019-03-05T15:52:09.392Z,10.70
2019-03-05T15:54:38.486Z,11.00
2019-03-05T15:57:12.153Z,11.10
2019-03-05T15:59:41.215Z,11.40
2019-03-05T16:02:11.241Z,11.40
2019-03-05T16:04:43.862Z,11.50
2019-03-05T16:07:13.816Z,11.80
2019-03-05T16:12:19.331Z,12.10
2019-03-05T16:14:48.243Z,11.90
2019-03-05T16:17:18.662Z,12.00
2019-03-05T16:19:49.082Z,11.90
2019-03-05T16:22:19.627Z,11.70
2019-03-05T16:24:53.725Z,11.50
2019-03-05T16:27:23.459Z,11.30
2019-03-05T16:29:55.788Z,10.90
2019-03-05T16:32:43.382Z,10.70
2019-03-05T16:35:32.462Z,10.40
2019-03-05T16:38:21.207Z,10.20
2019-03-05T16:41:06.015Z,10.00
2019-03-05T16:43:53.688Z,9.80
2019-03-05T16:46:41.036Z,9.70
2019-03-05T16:49:28.059Z,9.50
2019-03-05T16:52:16.171Z,9.40
2019-03-05T16:55:04.224Z,9.40
2019-03-05T16:57:42.306Z,9.30
2019-03-05T17:00:31.628Z,9.20
2019-03-05T17:06:15.565Z,9.10
2019-03-05T17:11:52.681Z,9.00
2019-03-05T17:14:22.515Z,8.90
2019-03-05T17:16:54.990Z,8.80
2019-03-05T17:19:23.973Z,8.80
2019-03-05T17:21:56.127Z,8.70
2019-03-05T17:24:25.182Z,8.70
2019-03-05T17:26:54.276Z,8.60
2019-03-05T17:29:23.564Z,8.60
2019-03-05T17:31:52.631Z,8.50
2019-03-05T17:34:21.829Z,8.40
2019-03-05T17:36:51.183Z,8.30
2019-03-05T17:39:24.199Z,8.30
2019-03-05T17:41:53.632Z,8.30
2019-03-05T17:44:22.970Z,8.20
2019-03-05T17:46:51.941Z,8.10
2019-03-05T17:49:20.960Z,8.10
2019-03-05T17:51:49.935Z,8.00
2019-03-05T17:54:19.651Z,8.00
2019-03-05T17:56:49.650Z,7.90
2019-03-05T17:59:18.874Z,7.90
2019-03-05T18:01:47.929Z,7.90
2019-03-05T18:04:20.183Z,7.80
2019-03-05T18:06:49.285Z,7.80
2019-03-05T18:09:18.879Z,7.80
2019-03-05T18:11:47.883Z,7.80
2019-03-05T18:14:16.811Z,7.80
2019-03-05T18:16:45.831Z,7.80
2019-03-05T18:19:15.333Z,7.80
2019-03-05T18:21:47.374Z,7.70
2019-03-05T18:24:16.767Z,7.80
2019-03-05T18:26:46.009Z,7.70
2019-03-05T18:29:15.196Z,7.70
2019-03-05T18:31:44.246Z,7.60
2019-03-05T18:34:13.799Z,7.60
2019-03-05T18:36:43.140Z,7.50
2019-03-05T18:39:13.689Z,7.50
2019-03-05T18:41:44.850Z,7.50
2019-03-05T18:44:15.128Z,7.40
2019-03-05T18:46:44.123Z,7.40
2019-03-05T18:49:13.130Z,7.40
2019-03-05T18:51:42.646Z,7.40
2019-03-05T18:54:12.279Z,7.40
2019-03-05T18:56:41.269Z,7.40
2019-03-05T18:59:13.695Z,7.30
2019-03-05T19:01:42.772Z,7.30
2019-03-05T19:04:12.334Z,7.30
2019-03-05T19:06:41.363Z,7.30
2019-03-05T19:09:11.142Z,7.30
2019-03-05T19:11:40.527Z,7.20
2019-03-05T19:14:09.620Z,7.20
2019-03-05T19:16:38.928Z,7.10
2019-03-05T19:19:14.940Z,7.10
2019-03-05T19:21:45.065Z,7.10
2019-03-05T19:24:17.091Z,7.10
2019-03-05T19:26:46.092Z,7.10
2019-03-05T19:29:15.542Z,7.10
2019-03-05T19:31:47.920Z,7.00
2019-03-05T19:34:17.110Z,7.00
2019-03-05T19:36:46.083Z,6.90
2019-03-05T19:39:15.681Z,6.90
2019-03-05T19:41:44.778Z,6.90
2019-03-05T19:44:15.252Z,6.80
2019-03-05T19:46:44.345Z,6.80
2019-03-05T19:49:13.225Z,6.80
2019-03-05T19:51:42.277Z,6.80
2019-03-05T19:54:11.379Z,6.80
2019-03-05T19:56:40.441Z,6.80
2019-03-05T19:59:09.507Z,6.80
2019-03-05T20:01:41.505Z,6.70
2019-03-05T20:04:11.899Z,6.70
2019-03-05T20:06:41.184Z,6.70
2019-03-05T20:09:10.597Z,6.70
2019-03-05T20:11:46.029Z,6.70
2019-03-05T20:14:15.016Z,6.70
2019-03-05T20:16:45.494Z,6.70
2019-03-05T20:19:14.760Z,6.60
2019-03-05T20:21:46.909Z,6.60
2019-03-05T20:24:16.559Z,6.60
2019-03-05T20:26:45.842Z,6.70
2019-03-05T20:29:14.888Z,6.70
2019-03-05T20:31:45.122Z,6.70
2019-03-05T20:34:14.666Z,6.70
2019-03-05T20:36:45.175Z,6.70
2019-03-05T20:39:15.524Z,6.70
2019-03-05T20:41:44.660Z,6.70
2019-03-05T20:44:13.855Z,6.70
2019-03-05T20:46:42.924Z,6.70
2019-03-05T20:49:12.732Z,6.70
2019-03-05T20:51:42.477Z,6.70
2019-03-05T20:54:11.683Z,6.70
2019-03-05T20:56:41.318Z,6.60
2019-03-05T20:59:10.439Z,6.60
2019-03-05T21:01:39.911Z,6.60
2019-03-05T21:04:08.996Z,6.60
2019-03-05T21:06:38.474Z,6.60
2019-03-05T21:09:19.433Z,6.50
2019-03-05T21:11:48.753Z,6.50
2019-03-05T21:14:18.231Z,6.50
2019-03-05T21:16:47.339Z,6.50
2019-03-05T21:19:16.350Z,6.50
2019-03-05T21:21:45.629Z,6.50
2019-03-05T21:24:14.555Z,6.40
2019-03-05T21:26:44.514Z,6.50
2019-03-05T21:29:13.503Z,6.40
2019-03-05T21:31:47.549Z,6.50
2019-03-05T21:34:19.616Z,6.40
2019-03-05T21:36:49.846Z,6.50
2019-03-05T21:39:19.727Z,6.40
2019-03-05T21:41:48.553Z,6.50
2019-03-05T21:44:17.928Z,6.40
2019-03-05T21:46:47.974Z,6.40
2019-03-05T21:49:17.359Z,6.40
2019-03-05T21:54:26.312Z,6.40
2019-03-05T21:56:56.908Z,6.40
2019-03-05T21:59:26.335Z,6.50
2019-03-05T22:01:56.146Z,6.50
2019-03-05T22:04:25.394Z,6.50
2019-03-05T22:06:57.859Z,6.50
2019-03-05T22:09:27.478Z,6.50
2019-03-05T22:11:59.889Z,6.50
2019-03-05T22:14:29.524Z,6.60
2019-03-05T22:16:58.429Z,6.70
2019-03-05T22:19:27.830Z,6.70
2019-03-05T22:21:56.872Z,6.70
2019-03-05T22:24:26.022Z,6.70
2019-03-05T22:26:59.054Z,6.80
2019-03-05T22:29:30.862Z,6.80
2019-03-05T22:32:00.255Z,6.80
2019-03-05T22:34:29.142Z,6.80
2019-03-05T22:36:58.436Z,6.80
2019-03-05T22:39:27.607Z,6.80
2019-03-05T22:41:58.435Z,6.90
2019-03-05T22:44:27.899Z,6.90
2019-03-05T22:46:56.883Z,7.00
2019-03-05T22:49:30.288Z,7.10
2019-03-05T22:52:12.801Z,7.20
2019-03-05T22:54:41.727Z,7.30
2019-03-05T22:57:10.737Z,7.30
2019-03-05T22:59:40.693Z,7.40
2019-03-05T23:02:09.778Z,7.40
2019-03-05T23:04:41.699Z,7.40
2019-03-05T23:07:11.547Z,7.40
2019-03-05T23:09:41.335Z,7.50
2019-03-05T23:12:11.897Z,7.50
2019-03-05T23:14:41.303Z,7.50
2019-03-05T23:17:10.611Z,7.40
2019-03-05T23:19:39.631Z,7.50
2019-03-05T23:22:10.763Z,7.50
2019-03-05T23:24:39.655Z,7.50
2019-03-05T23:27:09.043Z,7.60
2019-03-05T23:29:43.333Z,7.50
2019-03-05T23:32:12.821Z,7.50
2019-03-05T23:34:42.522Z,7.50
2019-03-05T23:37:15.168Z,7.50
2019-03-05T23:39:44.581Z,7.50
2019-03-05T23:42:13.499Z,7.50
2019-03-05T23:44:42.421Z,7.50
2019-03-05T23:47:11.687Z,7.50
2019-03-05T23:49:40.618Z,7.50
2019-03-05T23:52:09.577Z,7.50
2019-03-05T23:54:40.401Z,7.50
2019-03-05T23:57:09.818Z,7.50
2019-03-05T23:59:39.247Z,7.50
